Date,TemperatureHighF,TemperatureAvgF,TemperatureLowF,DewpointHighF,DewpointAvgF,DewpointLowF,HumidityHigh,HumidityAvg,HumidityLow,PressureMaxIn,PressureMinIn,WindSpeedMaxMPH,WindSpeedAvgMPH,GustSpeedMaxMPH,PrecipitationSumIn
2013-9-1,79.3,65.6,55.9,62.2,55.4,49.2,83,71,49,29.91,29.83,0,0,4,0.00
2013-9-2,75.7,64.7,54.0,64.1,56.9,48.7,83,76,63,29.93,29.86,0,0,0,0.00
2013-9-3,76.7,62.6,51.6,61.7,54.3,46.6,85,75,57,30.01,29.92,0,0,2,0.00
2013-9-4,78.6,63.5,54.1,63.2,55.9,49.1,85,77,59,30.06,29.99,0,0,1,0.00
2013-9-5,72.0,63.6,59.9,63.2,57.8,52.7,85,81,74,30.05,29.96,0,0,0,0.42
2013-9-6,71.8,63.6,58.7,63.8,58.4,53.8,86,83,75,30.11,29.98,0,0,0,0.38
2013-9-7,79.5,64.8,51.4,64.5,57.0,47.4,87,77,59,30.11,29.97,0,0,0,0.00
2013-9-8,85.1,65.8,50.5,66.6,56.8,46.2,86,74,50,30.08,30.01,0,0,0,0.00
2013-9-9,80.4,66.5,55.6,66.2,58.2,49.8,82,75,60,30.06,29.96,0,0,0,0.00
2013-9-10,90.7,68.9,50.0,67.8,58.0,45.2,85,70,46,29.97,29.79,0,0,0,0.00
2013-9-11,78.8,67.1,57.4,64.0,58.2,51.3,84,74,59,29.98,29.79,0,0,0,0.00
2013-9-12,76.1,63.1,58.6,63.8,56.0,53.2,83,78,63,30.01,29.95,0,0,0,0.00
2013-9-13,66.4,62.3,59.2,59.3,56.4,54.0,84,81,77,30.00,29.87,0,0,0,0.00
2013-9-14,75.1,65.2,60.1,63.4,58.2,55.2,84,78,67,29.88,29.73,0,0,0,0.00
2013-9-15,68.1,62.9,59.7,61.3,57.3,54.9,85,82,78,29.86,29.74,0,0,0,0.02
2013-9-16,72.3,63.2,58.3,63.8,56.5,52.0,86,79,66,29.95,29.86,0,0,0,0.00
2013-9-17,72.0,59.5,48.8,60.0,51.6,44.2,86,76,57,29.99,29.89,0,0,0,0.00
2013-9-18,72.7,59.4,47.5,59.7,50.9,41.9,86,75,56,30.09,29.98,0,0,0,0.00
2013-9-19,83.1,58.9,42.6,58.7,47.6,38.1,86,69,40,30.03,29.78,0,0,0,0.02
2013-9-20,70.5,55.9,43.3,58.5,49.7,38.5,85,80,63,29.78,29.62,0,0,0,0.16
2013-9-21,68.2,57.0,48.0,60.0,51.4,43.7,86,82,73,29.75,29.66,0,0,0,0.45
2013-9-22,68.2,56.6,50.7,61.1,51.5,46.1,86,83,75,29.80,29.57,3,0,12,0.96
2013-9-23,68.2,56.3,46.0,58.1,50.4,41.2,86,81,68,29.98,29.79,2,0,11,0.63
2013-9-24,63.6,52.4,46.0,55.6,47.1,41.2,86,82,72,29.99,29.85,5,0,10,0.63
2013-9-25,65.2,52.6,43.2,54.4,46.0,39.0,86,79,62,30.04,29.86,2,0,6,0.18
2013-9-26,68.5,51.0,38.8,56.9,43.8,34.6,86,77,61,30.15,30.04,6,0,11,0.00
2013-9-27,58.6,52.5,43.3,54.5,48.0,38.4,86,85,82,30.15,29.87,0,0,0,1.23
2013-9-28,64.2,57.0,50.7,59.1,52.6,46.4,87,85,81,29.88,29.43,8,1,22,2.40
2013-9-29,58.6,53.8,51.4,54.5,49.5,46.4,86,85,84,29.60,29.24,9,1,23,1.36
2013-9-30,63.7,54.4,47.1,54.1,48.5,41.9,85,80,70,29.94,29.49,6,2,17,0.53